sensor_id;sensor_type;location;lat;lon;timestamp;P1;durP1;ratioP1;P2;durP2;ratioP2
13250;SDS011;6692;50.710;7.180;2023-05-29T00:01:21;1999.90;;;999.90;;
13250;SDS011;6692;50.710;7.180;2023-05-29T00:03:22;1999.90;;;999.90;;
13250;SDS011;6692;50.710;7.180;2023-05-29T00:05:23;1999.90;;;999.90;;
13250;SDS011;6692;50.710;7.180;2023-05-29T00:07:24;1999.90;;;999.90;;
13250;SDS011;6692;50.710;7.180;2023-05-29T00:09:25;1999.90;;;999.90;;
13250;SDS011;6692;50.710;7.180;2023-05-29T00:11:26;1999.90;;;999.90;;
13250;SDS011;6692;50.710;7.180;2023-05-29T00:13:27;1999.90;;;999.90;;
13250;SDS011;6692;50.710;7.180;2023-05-29T00:15:27;1999.90;;;999.90;;
13250;SDS011;6692;50.710;7.180;2023-05-29T00:17:28;1999.90;;;999.90;;
13250;SDS011;6692;50.710;7.180;2023-05-29T00:19:30;1999.90;;;999.90;;
13250;SDS011;6692;50.710;7.180;2023-05-29T00:21:31;1999.90;;;999.90;;
13250;SDS011;6692;50.710;7.180;2023-05-29T00:23:31;1999.90;;;999.90;;
13250;SDS011;6692;50.710;7.180;2023-05-29T00:25:32;1999.90;;;999.90;;
13250;SDS011;6692;50.710;7.180;2023-05-29T00:27:33;1999.90;;;999.90;;
13250;SDS011;6692;50.710;7.180;2023-05-29T00:29:34;1999.90;;;999.90;;
13250;SDS011;6692;50.710;7.180;2023-05-29T00:31:34;1999.90;;;999.90;;
13250;SDS011;6692;50.710;7.180;2023-05-29T00:33:35;1999.90;;;999.90;;
13250;SDS011;6692;50.710;7.180;2023-05-29T00:35:36;1999.90;;;999.90;;
13250;SDS011;6692;50.710;7.180;2023-05-29T00:37:36;1999.90;;;999.90;;
13250;SDS011;6692;50.710;7.180;2023-05-29T00:39:37;1999.90;;;999.90;;
13250;SDS011;6692;50.710;7.180;2023-05-29T00:41:38;1999.90;;;999.90;;
13250;SDS011;6692;50.710;7.180;2023-05-29T00:43:38;1999.90;;;999.90;;
13250;SDS011;6692;50.710;7.180;2023-05-29T00:45:39;1999.90;;;999.90;;
13250;SDS011;6692;50.710;7.180;2023-05-29T00:47:41;1999.90;;;999.90;;
13250;SDS011;6692;50.710;7.180;2023-05-29T00:49:41;1999.90;;;999.90;;
13250;SDS011;6692;50.710;7.180;2023-05-29T00:51:43;1999.90;;;999.90;;
13250;SDS011;6692;50.710;7.180;2023-05-29T00:53:43;1999.90;;;999.90;;
13250;SDS011;6692;50.710;7.180;2023-05-29T00:55:44;1999.90;;;999.90;;
13250;SDS011;6692;50.710;7.180;2023-05-29T00:57:45;1999.90;;;999.90;;
13250;SDS011;6692;50.710;7.180;2023-05-29T00:59:45;1999.90;;;999.90;;
13250;SDS011;6692;50.710;7.180;2023-05-29T01:01:47;1999.90;;;999.90;;
13250;SDS011;6692;50.710;7.180;2023-05-29T01:03:48;1999.90;;;999.90;;
13250;SDS011;6692;50.710;7.180;2023-05-29T01:05:49;1999.90;;;999.90;;
13250;SDS011;6692;50.710;7.180;2023-05-29T01:07:49;1999.90;;;999.90;;
13250;SDS011;6692;50.710;7.180;2023-05-29T01:09:50;1999.90;;;999.90;;
13250;SDS011;6692;50.710;7.180;2023-05-29T01:11:56;1999.90;;;999.90;;
13250;SDS011;6692;50.710;7.180;2023-05-29T01:14:11;1999.90;;;999.90;;
13250;SDS011;6692;50.710;7.180;2023-05-29T01:16:14;1999.90;;;999.90;;
13250;SDS011;6692;50.710;7.180;2023-05-29T01:18:19;1999.90;;;999.90;;
13250;SDS011;6692;50.710;7.180;2023-05-29T01:20:40;1999.90;;;999.90;;
13250;SDS011;6692;50.710;7.180;2023-05-29T01:22:43;1999.90;;;999.90;;
13250;SDS011;6692;50.710;7.180;2023-05-29T01:24:49;1999.90;;;999.90;;
13250;SDS011;6692;50.710;7.180;2023-05-29T01:26:50;1999.90;;;999.90;;
13250;SDS011;6692;50.710;7.180;2023-05-29T01:28:51;1999.90;;;999.90;;
13250;SDS011;6692;50.710;7.180;2023-05-29T01:30:53;1999.90;;;999.90;;
13250;SDS011;6692;50.710;7.180;2023-05-29T01:32:53;1999.90;;;999.90;;
13250;SDS011;6692;50.710;7.180;2023-05-29T01:34:53;1999.90;;;999.90;;
13250;SDS011;6692;50.710;7.180;2023-05-29T01:36:54;1999.90;;;999.90;;
13250;SDS011;6692;50.710;7.180;2023-05-29T01:38:56;1999.90;;;999.90;;
13250;SDS011;6692;50.710;7.180;2023-05-29T01:40:56;1999.90;;;999.90;;
13250;SDS011;6692;50.710;7.180;2023-05-29T01:42:56;1999.90;;;999.90;;
13250;SDS011;6692;50.710;7.180;2023-05-29T01:44:57;1999.90;;;999.90;;
13250;SDS011;6692;50.710;7.180;2023-05-29T01:46:58;1999.90;;;999.90;;
13250;SDS011;6692;50.710;7.180;2023-05-29T01:48:59;1999.90;;;999.90;;
13250;SDS011;6692;50.710;7.180;2023-05-29T01:51:00;1999.90;;;999.90;;
13250;SDS011;6692;50.710;7.180;2023-05-29T01:53:01;1999.90;;;999.90;;
13250;SDS011;6692;50.710;7.180;2023-05-29T01:55:01;1999.90;;;999.90;;
13250;SDS011;6692;50.710;7.180;2023-05-29T01:57:03;1999.90;;;999.90;;
13250;SDS011;6692;50.710;7.180;2023-05-29T01:59:04;1999.90;;;999.90;;
13250;SDS011;6692;50.710;7.180;2023-05-29T02:01:05;1999.90;;;999.90;;
13250;SDS011;6692;50.710;7.180;2023-05-29T02:03:05;1999.90;;;999.90;;
13250;SDS011;6692;50.710;7.180;2023-05-29T02:05:07;1999.90;;;999.90;;
13250;SDS011;6692;50.710;7.180;2023-05-29T02:07:08;1999.90;;;999.90;;
13250;SDS011;6692;50.710;7.180;2023-05-29T02:09:09;1999.90;;;999.90;;
13250;SDS011;6692;50.710;7.180;2023-05-29T02:11:10;1999.90;;;999.90;;
13250;SDS011;6692;50.710;7.180;2023-05-29T02:13:12;1999.90;;;999.90;;
13250;SDS011;6692;50.710;7.180;2023-05-29T02:15:13;1999.90;;;999.90;;
13250;SDS011;6692;50.710;7.180;2023-05-29T02:17:13;1999.90;;;999.90;;
13250;SDS011;6692;50.710;7.180;2023-05-29T02:19:14;1999.90;;;999.90;;
13250;SDS011;6692;50.710;7.180;2023-05-29T02:21:15;1999.90;;;999.90;;
13250;SDS011;6692;50.710;7.180;2023-05-29T02:23:16;1999.90;;;999.90;;
13250;SDS011;6692;50.710;7.180;2023-05-29T02:25:16;1999.90;;;999.90;;
13250;SDS011;6692;50.710;7.180;2023-05-29T02:27:17;1999.90;;;999.90;;
13250;SDS011;6692;50.710;7.180;2023-05-29T02:29:18;1999.90;;;999.90;;
13250;SDS011;6692;50.710;7.180;2023-05-29T02:31:18;1999.90;;;999.90;;
13250;SDS011;6692;50.710;7.180;2023-05-29T02:33:19;1999.90;;;999.90;;
13250;SDS011;6692;50.710;7.180;2023-05-29T02:35:20;1999.90;;;999.90;;
13250;SDS011;6692;50.710;7.180;2023-05-29T02:37:21;1999.90;;;999.90;;
13250;SDS011;6692;50.710;7.180;2023-05-29T02:39:21;1999.90;;;999.90;;
13250;SDS011;6692;50.710;7.180;2023-05-29T02:41:22;1999.90;;;999.90;;
13250;SDS011;6692;50.710;7.180;2023-05-29T02:43:23;1999.90;;;999.90;;
13250;SDS011;6692;50.710;7.180;2023-05-29T02:45:24;1999.90;;;999.90;;
13250;SDS011;6692;50.710;7.180;2023-05-29T02:47:24;1999.90;;;999.90;;
13250;SDS011;6692;50.710;7.180;2023-05-29T02:49:25;1999.90;;;999.90;;
13250;SDS011;6692;50.710;7.180;2023-05-29T02:51:27;1999.90;;;999.90;;
13250;SDS011;6692;50.710;7.180;2023-05-29T02:53:27;1999.90;;;999.90;;
13250;SDS011;6692;50.710;7.180;2023-05-29T02:55:28;1999.90;;;999.90;;
13250;SDS011;6692;50.710;7.180;2023-05-29T02:57:29;1999.90;;;999.90;;
13250;SDS011;6692;50.710;7.180;2023-05-29T02:59:30;1999.90;;;999.90;;
13250;SDS011;6692;50.710;7.180;2023-05-29T03:01:32;1999.90;;;999.90;;
13250;SDS011;6692;50.710;7.180;2023-05-29T03:03:33;1999.90;;;999.90;;
13250;SDS011;6692;50.710;7.180;2023-05-29T03:05:34;1999.90;;;999.90;;
13250;SDS011;6692;50.710;7.180;2023-05-29T03:07:34;1999.90;;;999.90;;
13250;SDS011;6692;50.710;7.180;2023-05-29T03:09:36;1999.90;;;999.90;;
13250;SDS011;6692;50.710;7.180;2023-05-29T03:11:36;1999.90;;;999.90;;
13250;SDS011;6692;50.710;7.180;2023-05-29T03:13:38;1999.90;;;999.90;;
13250;SDS011;6692;50.710;7.180;2023-05-29T03:15:38;1999.90;;;999.90;;
13250;SDS011;6692;50.710;7.180;2023-05-29T03:17:40;1999.90;;;999.90;;
13250;SDS011;6692;50.710;7.180;2023-05-29T03:19:41;1999.90;;;999.90;;
13250;SDS011;6692;50.710;7.180;2023-05-29T03:21:41;1999.90;;;999.90;;
13250;SDS011;6692;50.710;7.180;2023-05-29T03:23:42;1999.90;;;999.90;;
13250;SDS011;6692;50.710;7.180;2023-05-29T03:25:43;1999.90;;;999.90;;
13250;SDS011;6692;50.710;7.180;2023-05-29T03:27:43;1999.90;;;999.90;;
13250;SDS011;6692;50.710;7.180;2023-05-29T03:29:45;1999.90;;;999.90;;
13250;SDS011;6692;50.710;7.180;2023-05-29T03:31:46;1999.90;;;999.90;;
13250;SDS011;6692;50.710;7.180;2023-05-29T03:33:47;1999.90;;;999.90;;
13250;SDS011;6692;50.710;7.180;2023-05-29T03:35:47;1999.90;;;999.90;;
13250;SDS011;6692;50.710;7.180;2023-05-29T03:37:48;1999.90;;;999.90;;
13250;SDS011;6692;50.710;7.180;2023-05-29T03:39:48;1999.90;;;999.90;;
13250;SDS011;6692;50.710;7.180;2023-05-29T03:41:49;1999.90;;;999.90;;
13250;SDS011;6692;50.710;7.180;2023-05-29T03:43:50;1999.90;;;999.90;;
13250;SDS011;6692;50.710;7.180;2023-05-29T03:45:51;1999.90;;;999.90;;
13250;SDS011;6692;50.710;7.180;2023-05-29T03:47:52;1999.90;;;999.90;;
13250;SDS011;6692;50.710;7.180;2023-05-29T03:49:53;1999.90;;;999.90;;
13250;SDS011;6692;50.710;7.180;2023-05-29T03:51:55;1999.90;;;999.90;;
13250;SDS011;6692;50.710;7.180;2023-05-29T03:53:56;1999.90;;;999.90;;
13250;SDS011;6692;50.710;7.180;2023-05-29T03:55:56;1999.90;;;999.90;;
13250;SDS011;6692;50.710;7.180;2023-05-29T03:57:57;1999.90;;;999.90;;
13250;SDS011;6692;50.710;7.180;2023-05-29T03:59:58;1999.90;;;999.90;;
13250;SDS011;6692;50.710;7.180;2023-05-29T04:01:58;1999.90;;;999.90;;
13250;SDS011;6692;50.710;7.180;2023-05-29T04:03:59;1999.90;;;999.90;;
13250;SDS011;6692;50.710;7.180;2023-05-29T04:06:01;1999.90;;;999.90;;
13250;SDS011;6692;50.710;7.180;2023-05-29T04:08:01;1999.90;;;999.90;;
13250;SDS011;6692;50.710;7.180;2023-05-29T04:10:02;1999.90;;;999.90;;
13250;SDS011;6692;50.710;7.180;2023-05-29T04:12:03;1999.90;;;999.90;;
13250;SDS011;6692;50.710;7.180;2023-05-29T04:14:04;1999.90;;;999.90;;
13250;SDS011;6692;50.710;7.180;2023-05-29T04:16:06;1999.90;;;999.90;;
13250;SDS011;6692;50.710;7.180;2023-05-29T04:18:06;1999.90;;;999.90;;
13250;SDS011;6692;50.710;7.180;2023-05-29T04:20:08;1999.90;;;999.90;;
13250;SDS011;6692;50.710;7.180;2023-05-29T04:22:09;1999.90;;;999.90;;
13250;SDS011;6692;50.710;7.180;2023-05-29T04:24:10;1999.90;;;999.90;;
13250;SDS011;6692;50.710;7.180;2023-05-29T04:26:11;1999.90;;;999.90;;
13250;SDS011;6692;50.710;7.180;2023-05-29T04:28:12;1999.90;;;999.90;;
13250;SDS011;6692;50.710;7.180;2023-05-29T04:30:12;1999.90;;;999.90;;
13250;SDS011;6692;50.710;7.180;2023-05-29T04:32:13;1999.90;;;999.90;;
13250;SDS011;6692;50.710;7.180;2023-05-29T04:34:14;1999.90;;;999.90;;
13250;SDS011;6692;50.710;7.180;2023-05-29T04:36:15;1999.90;;;999.90;;
13250;SDS011;6692;50.710;7.180;2023-05-29T04:38:15;1999.90;;;999.90;;
13250;SDS011;6692;50.710;7.180;2023-05-29T04:40:16;1999.90;;;999.90;;
13250;SDS011;6692;50.710;7.180;2023-05-29T04:42:17;1999.90;;;999.90;;
13250;SDS011;6692;50.710;7.180;2023-05-29T04:44:18;1999.90;;;999.90;;
13250;SDS011;6692;50.710;7.180;2023-05-29T04:46:18;1999.90;;;999.90;;
13250;SDS011;6692;50.710;7.180;2023-05-29T04:48:19;1999.90;;;999.90;;
13250;SDS011;6692;50.710;7.180;2023-05-29T04:50:20;1999.90;;;999.90;;
13250;SDS011;6692;50.710;7.180;2023-05-29T04:52:21;1999.90;;;999.90;;
13250;SDS011;6692;50.710;7.180;2023-05-29T04:54:21;1999.90;;;999.90;;
13250;SDS011;6692;50.710;7.180;2023-05-29T04:56:22;1999.90;;;999.90;;
13250;SDS011;6692;50.710;7.180;2023-05-29T04:58:25;1999.90;;;999.90;;
13250;SDS011;6692;50.710;7.180;2023-05-29T05:00:24;1999.90;;;999.90;;
13250;SDS011;6692;50.710;7.180;2023-05-29T05:02:24;1999.90;;;999.90;;
13250;SDS011;6692;50.710;7.180;2023-05-29T05:04:25;1999.90;;;999.90;;
13250;SDS011;6692;50.710;7.180;2023-05-29T05:06:26;1999.90;;;999.90;;
13250;SDS011;6692;50.710;7.180;2023-05-29T05:08:27;1999.90;;;999.90;;
13250;SDS011;6692;50.710;7.180;2023-05-29T05:10:27;1999.90;;;999.90;;
13250;SDS011;6692;50.710;7.180;2023-05-29T05:12:29;1999.90;;;999.90;;
13250;SDS011;6692;50.710;7.180;2023-05-29T05:14:30;1999.90;;;999.90;;
13250;SDS011;6692;50.710;7.180;2023-05-29T05:16:30;1999.90;;;999.90;;
13250;SDS011;6692;50.710;7.180;2023-05-29T05:18:31;1999.90;;;999.90;;
13250;SDS011;6692;50.710;7.180;2023-05-29T05:20:32;1999.90;;;999.90;;
13250;SDS011;6692;50.710;7.180;2023-05-29T05:22:33;1999.90;;;999.90;;
13250;SDS011;6692;50.710;7.180;2023-05-29T05:24:33;1999.90;;;999.90;;
13250;SDS011;6692;50.710;7.180;2023-05-29T05:26:34;1999.90;;;999.90;;
13250;SDS011;6692;50.710;7.180;2023-05-29T05:28:35;1999.90;;;999.90;;
13250;SDS011;6692;50.710;7.180;2023-05-29T05:30:36;1999.90;;;999.90;;
13250;SDS011;6692;50.710;7.180;2023-05-29T05:32:37;1999.90;;;999.90;;
13250;SDS011;6692;50.710;7.180;2023-05-29T05:34:38;1999.90;;;999.90;;
13250;SDS011;6692;50.710;7.180;2023-05-29T05:36:38;1999.90;;;999.90;;
13250;SDS011;6692;50.710;7.180;2023-05-29T05:38:39;1999.90;;;999.90;;
13250;SDS011;6692;50.710;7.180;2023-05-29T05:40:40;1999.90;;;999.90;;
13250;SDS011;6692;50.710;7.180;2023-05-29T05:42:40;1999.90;;;999.90;;
13250;SDS011;6692;50.710;7.180;2023-05-29T05:44:41;1999.90;;;999.90;;
13250;SDS011;6692;50.710;7.180;2023-05-29T05:46:42;1999.90;;;999.90;;
13250;SDS011;6692;50.710;7.180;2023-05-29T05:48:43;1999.90;;;999.90;;
13250;SDS011;6692;50.710;7.180;2023-05-29T05:50:43;1999.90;;;999.90;;
13250;SDS011;6692;50.710;7.180;2023-05-29T05:52:44;1999.90;;;999.90;;
13250;SDS011;6692;50.710;7.180;2023-05-29T05:54:46;1999.90;;;999.90;;
13250;SDS011;6692;50.710;7.180;2023-05-29T05:56:46;1999.90;;;999.90;;
13250;SDS011;6692;50.710;7.180;2023-05-29T05:58:48;1999.90;;;999.90;;
13250;SDS011;6692;50.710;7.180;2023-05-29T06:00:49;1999.90;;;999.90;;
13250;SDS011;6692;50.710;7.180;2023-05-29T06:02:49;1999.90;;;999.90;;
13250;SDS011;6692;50.710;7.180;2023-05-29T06:04:50;1999.90;;;999.90;;
13250;SDS011;6692;50.710;7.180;2023-05-29T06:06:51;1999.90;;;999.90;;
13250;SDS011;6692;50.710;7.180;2023-05-29T06:08:52;1999.90;;;999.90;;
13250;SDS011;6692;50.710;7.180;2023-05-29T06:10:52;1999.90;;;999.90;;
13250;SDS011;6692;50.710;7.180;2023-05-29T06:12:54;1999.90;;;999.90;;
13250;SDS011;6692;50.710;7.180;2023-05-29T06:14:55;1999.90;;;999.90;;
13250;SDS011;6692;50.710;7.180;2023-05-29T06:16:55;1999.90;;;999.90;;
13250;SDS011;6692;50.710;7.180;2023-05-29T06:18:56;1999.90;;;999.90;;
13250;SDS011;6692;50.710;7.180;2023-05-29T06:20:57;1999.90;;;999.90;;
13250;SDS011;6692;50.710;7.180;2023-05-29T06:22:57;1999.90;;;999.90;;
13250;SDS011;6692;50.710;7.180;2023-05-29T06:24:58;1999.90;;;999.90;;
13250;SDS011;6692;50.710;7.180;2023-05-29T06:26:59;1999.90;;;999.90;;
13250;SDS011;6692;50.710;7.180;2023-05-29T06:29:00;1999.90;;;999.90;;
13250;SDS011;6692;50.710;7.180;2023-05-29T06:31:02;1999.90;;;999.90;;
13250;SDS011;6692;50.710;7.180;2023-05-29T06:33:03;1999.90;;;999.90;;
13250;SDS011;6692;50.710;7.180;2023-05-29T06:35:04;1999.90;;;999.90;;
13250;SDS011;6692;50.710;7.180;2023-05-29T06:37:06;1999.90;;;999.90;;
13250;SDS011;6692;50.710;7.180;2023-05-29T06:39:06;1999.90;;;999.90;;
13250;SDS011;6692;50.710;7.180;2023-05-29T06:41:08;1999.90;;;999.90;;
13250;SDS011;6692;50.710;7.180;2023-05-29T06:43:08;1999.90;;;999.90;;
13250;SDS011;6692;50.710;7.180;2023-05-29T06:45:10;226.43;;;217.73;;
13250;SDS011;6692;50.710;7.180;2023-05-29T06:47:11;214.30;;;205.90;;
13250;SDS011;6692;50.710;7.180;2023-05-29T06:49:12;105.50;;;100.83;;
13250;SDS011;6692;50.710;7.180;2023-05-29T06:51:12;1447.37;;;776.17;;
13250;SDS011;6692;50.710;7.180;2023-05-29T06:53:13;203.87;;;195.83;;
13250;SDS011;6692;50.710;7.180;2023-05-29T06:55:14;298.50;;;286.87;;
13250;SDS011;6692;50.710;7.180;2023-05-29T06:57:14;874.87;;;533.37;;
13250;SDS011;6692;50.710;7.180;2023-05-29T06:59:15;278.30;;;267.70;;
13250;SDS011;6692;50.710;7.180;2023-05-29T07:01:16;1449.00;;;777.77;;
13250;SDS011;6692;50.710;7.180;2023-05-29T07:03:17;1999.90;;;999.90;;
13250;SDS011;6692;50.710;7.180;2023-05-29T07:05:17;191.83;;;184.30;;
13250;SDS011;6692;50.710;7.180;2023-05-29T07:07:18;70.23;;;66.97;;
13250;SDS011;6692;50.710;7.180;2023-05-29T07:09:19;70.07;;;66.97;;
13250;SDS011;6692;50.710;7.180;2023-05-29T07:11:20;101.27;;;96.43;;
13250;SDS011;6692;50.710;7.180;2023-05-29T07:13:20;96.57;;;92.57;;
13250;SDS011;6692;50.710;7.180;2023-05-29T07:15:21;78.87;;;75.27;;
13250;SDS011;6692;50.710;7.180;2023-05-29T07:17:22;101.77;;;97.37;;
13250;SDS011;6692;50.710;7.180;2023-05-29T07:19:22;140.90;;;134.97;;
13250;SDS011;6692;50.710;7.180;2023-05-29T07:21:23;85.13;;;81.50;;
13250;SDS011;6692;50.710;7.180;2023-05-29T07:23:24;74.33;;;71.03;;
13250;SDS011;6692;50.710;7.180;2023-05-29T07:25:26;89.77;;;86.03;;
13250;SDS011;6692;50.710;7.180;2023-05-29T07:27:27;110.63;;;105.93;;
13250;SDS011;6692;50.710;7.180;2023-05-29T07:29:28;78.80;;;75.13;;
13250;SDS011;6692;50.710;7.180;2023-05-29T07:31:29;64.10;;;60.97;;
13250;SDS011;6692;50.710;7.180;2023-05-29T07:33:30;149.97;;;143.87;;
13250;SDS011;6692;50.710;7.180;2023-05-29T07:35:31;98.73;;;94.53;;
13250;SDS011;6692;50.710;7.180;2023-05-29T07:37:31;109.40;;;104.80;;
13250;SDS011;6692;50.710;7.180;2023-05-29T07:39:32;209.80;;;201.77;;
13250;SDS011;6692;50.710;7.180;2023-05-29T07:41:33;136.60;;;131.07;;
13250;SDS011;6692;50.710;7.180;2023-05-29T07:43:33;126.97;;;121.93;;
13250;SDS011;6692;50.710;7.180;2023-05-29T07:45:34;213.43;;;205.23;;
13250;SDS011;6692;50.710;7.180;2023-05-29T07:47:36;99.27;;;95.00;;
13250;SDS011;6692;50.710;7.180;2023-05-29T07:49:36;121.70;;;116.80;;
13250;SDS011;6692;50.710;7.180;2023-05-29T07:51:37;89.50;;;85.63;;
13250;SDS011;6692;50.710;7.180;2023-05-29T07:53:38;132.37;;;126.80;;
13250;SDS011;6692;50.710;7.180;2023-05-29T07:55:38;78.57;;;75.27;;
13250;SDS011;6692;50.710;7.180;2023-05-29T07:57:39;87.40;;;83.67;;
13250;SDS011;6692;50.710;7.180;2023-05-29T07:59:40;94.30;;;90.47;;
13250;SDS011;6692;50.710;7.180;2023-05-29T08:01:40;88.40;;;84.57;;
13250;SDS011;6692;50.710;7.180;2023-05-29T08:03:41;112.87;;;108.00;;
13250;SDS011;6692;50.710;7.180;2023-05-29T08:05:43;78.17;;;74.67;;
13250;SDS011;6692;50.710;7.180;2023-05-29T08:07:44;140.90;;;135.53;;
13250;SDS011;6692;50.710;7.180;2023-05-29T08:09:45;120.63;;;115.73;;
13250;SDS011;6692;50.710;7.180;2023-05-29T08:11:46;160.07;;;153.90;;
13250;SDS011;6692;50.710;7.180;2023-05-29T08:13:46;133.77;;;128.33;;
13250;SDS011;6692;50.710;7.180;2023-05-29T08:15:47;84.63;;;81.20;;
13250;SDS011;6692;50.710;7.180;2023-05-29T08:17:48;216.73;;;208.60;;
13250;SDS011;6692;50.710;7.180;2023-05-29T08:19:49;274.10;;;263.80;;
13250;SDS011;6692;50.710;7.180;2023-05-29T08:21:51;309.67;;;298.47;;
13250;SDS011;6692;50.710;7.180;2023-05-29T08:23:52;283.00;;;272.27;;
13250;SDS011;6692;50.710;7.180;2023-05-29T08:25:52;291.57;;;280.93;;
13250;SDS011;6692;50.710;7.180;2023-05-29T08:27:53;295.13;;;284.23;;
13250;SDS011;6692;50.710;7.180;2023-05-29T08:29:54;313.70;;;302.00;;
13250;SDS011;6692;50.710;7.180;2023-05-29T08:31:55;330.87;;;318.53;;
13250;SDS011;6692;50.710;7.180;2023-05-29T08:33:56;344.77;;;331.97;;
13250;SDS011;6692;50.710;7.180;2023-05-29T08:35:57;343.33;;;330.50;;
13250;SDS011;6692;50.710;7.180;2023-05-29T08:37:57;325.63;;;313.67;;
13250;SDS011;6692;50.710;7.180;2023-05-29T08:39:58;319.13;;;307.03;;
13250;SDS011;6692;50.710;7.180;2023-05-29T08:41:59;376.27;;;361.93;;
13250;SDS011;6692;50.710;7.180;2023-05-29T08:44:00;342.10;;;329.40;;
13250;SDS011;6692;50.710;7.180;2023-05-29T08:46:02;317.67;;;306.17;;
13250;SDS011;6692;50.710;7.180;2023-05-29T08:48:03;349.07;;;335.97;;
13250;SDS011;6692;50.710;7.180;2023-05-29T08:50:04;353.00;;;339.93;;
13250;SDS011;6692;50.710;7.180;2023-05-29T08:52:09;325.57;;;313.63;;
13250;SDS011;6692;50.710;7.180;2023-05-29T08:54:09;302.53;;;291.23;;
13250;SDS011;6692;50.710;7.180;2023-05-29T08:56:09;358.03;;;344.40;;
13250;SDS011;6692;50.710;7.180;2023-05-29T08:58:11;367.00;;;352.93;;
13250;SDS011;6692;50.710;7.180;2023-05-29T09:00:11;349.70;;;336.73;;
13250;SDS011;6692;50.710;7.180;2023-05-29T09:02:13;1999.90;;;999.90;;
13250;SDS011;6692;50.710;7.180;2023-05-29T09:04:13;921.27;;;578.30;;
13250;SDS011;6692;50.710;7.180;2023-05-29T09:06:14;1999.90;;;999.90;;
13250;SDS011;6692;50.710;7.180;2023-05-29T09:08:15;1999.90;;;999.90;;
13250;SDS011;6692;50.710;7.180;2023-05-29T09:10:16;1999.90;;;999.90;;
13250;SDS011;6692;50.710;7.180;2023-05-29T09:12:17;1999.90;;;999.90;;
13250;SDS011;6692;50.710;7.180;2023-05-29T09:14:31;1999.90;;;999.90;;
13250;SDS011;6692;50.710;7.180;2023-05-29T09:16:40;1999.90;;;999.90;;
13250;SDS011;6692;50.710;7.180;2023-05-29T09:18:34;1999.90;;;999.90;;
13250;SDS011;6692;50.710;7.180;2023-05-29T09:20:35;1999.90;;;999.90;;
13250;SDS011;6692;50.710;7.180;2023-05-29T09:22:37;1999.90;;;999.90;;
13250;SDS011;6692;50.710;7.180;2023-05-29T09:24:38;1999.90;;;999.90;;
13250;SDS011;6692;50.710;7.180;2023-05-29T09:26:39;1999.90;;;999.90;;
13250;SDS011;6692;50.710;7.180;2023-05-29T09:28:40;1999.90;;;999.90;;
13250;SDS011;6692;50.710;7.180;2023-05-29T09:30:42;1999.90;;;999.90;;
13250;SDS011;6692;50.710;7.180;2023-05-29T09:32:42;1999.90;;;999.90;;
13250;SDS011;6692;50.710;7.180;2023-05-29T09:34:43;1999.90;;;999.90;;
13250;SDS011;6692;50.710;7.180;2023-05-29T09:36:43;1999.90;;;999.90;;
13250;SDS011;6692;50.710;7.180;2023-05-29T09:38:45;1999.90;;;999.90;;
13250;SDS011;6692;50.710;7.180;2023-05-29T09:40:45;1999.90;;;999.90;;
13250;SDS011;6692;50.710;7.180;2023-05-29T09:42:46;1999.90;;;999.90;;
13250;SDS011;6692;50.710;7.180;2023-05-29T09:44:48;1999.90;;;999.90;;
13250;SDS011;6692;50.710;7.180;2023-05-29T09:46:49;1999.90;;;999.90;;
13250;SDS011;6692;50.710;7.180;2023-05-29T09:48:50;1999.90;;;999.90;;
13250;SDS011;6692;50.710;7.180;2023-05-29T09:50:51;1999.90;;;999.90;;
13250;SDS011;6692;50.710;7.180;2023-05-29T09:52:52;1999.90;;;999.90;;
13250;SDS011;6692;50.710;7.180;2023-05-29T09:54:53;1999.90;;;999.90;;
13250;SDS011;6692;50.710;7.180;2023-05-29T09:56:53;1999.90;;;999.90;;
13250;SDS011;6692;50.710;7.180;2023-05-29T09:58:54;1999.90;;;999.90;;
13250;SDS011;6692;50.710;7.180;2023-05-29T10:00:56;1999.90;;;999.90;;
13250;SDS011;6692;50.710;7.180;2023-05-29T10:02:56;1999.90;;;999.90;;
13250;SDS011;6692;50.710;7.180;2023-05-29T10:04:57;1999.90;;;999.90;;
13250;SDS011;6692;50.710;7.180;2023-05-29T10:07:05;1999.90;;;999.90;;
13250;SDS011;6692;50.710;7.180;2023-05-29T10:09:05;1999.90;;;999.90;;
13250;SDS011;6692;50.710;7.180;2023-05-29T10:11:06;1999.90;;;999.90;;
13250;SDS011;6692;50.710;7.180;2023-05-29T10:13:09;1374.20;;;705.90;;
13250;SDS011;6692;50.710;7.180;2023-05-29T10:15:11;1999.90;;;999.90;;
13250;SDS011;6692;50.710;7.180;2023-05-29T10:17:12;1999.90;;;999.90;;
13250;SDS011;6692;50.710;7.180;2023-05-29T10:19:15;1374.73;;;706.33;;
13250;SDS011;6692;50.710;7.180;2023-05-29T10:21:14;1377.20;;;708.70;;
13250;SDS011;6692;50.710;7.180;2023-05-29T10:23:14;1377.03;;;708.60;;
13250;SDS011;6692;50.710;7.180;2023-05-29T10:25:16;1376.07;;;707.77;;
13250;SDS011;6692;50.710;7.180;2023-05-29T10:27:17;1377.33;;;708.87;;
13250;SDS011;6692;50.710;7.180;2023-05-29T10:29:29;1999.90;;;999.90;;
13250;SDS011;6692;50.710;7.180;2023-05-29T10:31:46;1382.83;;;714.27;;
13250;SDS011;6692;50.710;7.180;2023-05-29T10:36:14;1999.90;;;999.90;;
13250;SDS011;6692;50.710;7.180;2023-05-29T10:38:14;1383.53;;;714.87;;
13250;SDS011;6692;50.710;7.180;2023-05-29T10:40:14;135.23;;;130.00;;
13250;SDS011;6692;50.710;7.180;2023-05-29T10:44:37;143.47;;;137.80;;
13250;SDS011;6692;50.710;7.180;2023-05-29T10:49:05;1382.20;;;713.57;;
13250;SDS011;6692;50.710;7.180;2023-05-29T10:51:06;1999.90;;;999.90;;
13250;SDS011;6692;50.710;7.180;2023-05-29T10:53:07;152.57;;;146.47;;
13250;SDS011;6692;50.710;7.180;2023-05-29T10:55:08;144.57;;;139.10;;
13250;SDS011;6692;50.710;7.180;2023-05-29T10:57:09;1381.97;;;713.43;;
13250;SDS011;6692;50.710;7.180;2023-05-29T10:59:10;1379.70;;;711.30;;
13250;SDS011;6692;50.710;7.180;2023-05-29T11:01:11;1379.67;;;711.17;;
13250;SDS011;6692;50.710;7.180;2023-05-29T11:03:14;140.00;;;134.70;;
13250;SDS011;6692;50.710;7.180;2023-05-29T11:05:18;143.03;;;137.50;;
13250;SDS011;6692;50.710;7.180;2023-05-29T11:09:38;136.30;;;131.00;;
13250;SDS011;6692;50.710;7.180;2023-05-29T11:11:39;146.30;;;140.73;;
13250;SDS011;6692;50.710;7.180;2023-05-29T11:13:40;144.77;;;139.17;;
13250;SDS011;6692;50.710;7.180;2023-05-29T11:15:41;148.33;;;142.67;;
13250;SDS011;6692;50.710;7.180;2023-05-29T11:17:43;144.40;;;138.67;;
13250;SDS011;6692;50.710;7.180;2023-05-29T11:19:44;147.13;;;141.47;;
13250;SDS011;6692;50.710;7.180;2023-05-29T11:24:05;152.90;;;146.83;;
13250;SDS011;6692;50.710;7.180;2023-05-29T11:26:06;163.37;;;156.93;;
13250;SDS011;6692;50.710;7.180;2023-05-29T11:28:08;154.20;;;148.23;;
13250;SDS011;6692;50.710;7.180;2023-05-29T11:30:09;148.90;;;142.90;;
13250;SDS011;6692;50.710;7.180;2023-05-29T11:32:12;152.97;;;147.07;;
13250;SDS011;6692;50.710;7.180;2023-05-29T11:34:14;157.23;;;151.20;;
13250;SDS011;6692;50.710;7.180;2023-05-29T11:36:12;156.30;;;150.03;;
13250;SDS011;6692;50.710;7.180;2023-05-29T11:38:15;156.83;;;150.60;;
13250;SDS011;6692;50.710;7.180;2023-05-29T11:40:14;161.57;;;155.30;;
13250;SDS011;6692;50.710;7.180;2023-05-29T11:42:15;169.03;;;162.50;;
13250;SDS011;6692;50.710;7.180;2023-05-29T11:44:16;166.53;;;160.17;;